Impacts METAR Board
IDs:

KMCO - Orlando Intl, FL, US

Updated at: 1200 UTC 16 Sep 2019
Potential Impact None Slight Moderate High
Time 16/00Z 16/01Z 16/02Z 16/03Z 16/04Z 16/05Z 16/06Z 16/07Z 16/08Z 16/09Z 16/10Z 16/11Z 16/12Z
Temp82 81 80 79 79 79 78 77 77 77 77 77 77
Dewpt72 73 73 73 74 74 74 74 74 74 74 74 75
Altim29.93 29.93 29.92 29.93 29.93 29.93 29.93 29.92 29.92 29.92 29.93 29.95 29.97
VIS10 10 10 10 10 10 10 10 10 10 10 10 10
CIG250 250 250 250 -- -- -- -- -- -- -- -- --
CoverBKNBKNBKNBKNSCTFEWFEWSCTSCTFEWFEWSCTFEW
FltCatVFRVFRVFRVFRVFRVFRVFRVFRVFRVFRVFRVFRVFR
WX--------------------------
WDir360350350350320330310310310310320310310
WSpd11 8 12 11 8 10 6 7 7 6 6 7 6
WGst-- -- -- -- -- -- -- -- -- -- -- -- --
Raw hourly METARs
KMCO 152353Z 36011KT 10SM FEW045 SCT080 BKN250 BKN300 28/22 A2993 RMK AO2 SLP133 60000 T02780222 10322 20278 51014
KMCO 160053Z 35008KT 10SM FEW070 BKN250 BKN300 27/23 A2993 RMK AO2 SLP133 T02720228
KMCO 160153Z 35012KT 10SM FEW045 FEW100 BKN250 27/23 A2992 RMK AO2 SLP132 T02670228
KMCO 160253Z 35011KT 10SM FEW040 FEW140 BKN250 26/23 A2993 RMK AO2 SLP134 T02610228 53002
KMCO 160353Z 32008KT 10SM FEW035 SCT250 26/23 A2993 RMK AO2 SLP135 T02610233
KMCO 160453Z 33010KT 10SM FEW030 FEW250 26/23 A2993 RMK AO2 SLP133 T02610233 403220244
KMCO 160553Z 31006KT 10SM FEW014 FEW250 26/23 A2993 RMK AO2 SLP134 T02560233 10278 20256 55000
KMCO 160653Z 31007KT 10SM SCT015 SCT250 25/23 A2992 RMK AO2 SLP131 T02500233
KMCO 160753Z 31007KT 10SM SCT011 SCT250 25/23 A2992 RMK AO2 SLP129 T02500233
KMCO 160901Z 31006KT 10SM FEW009 FEW250 25/23 A2992 RMK AO2 T02500233
KMCO 160953Z 32006KT 10SM FEW008 FEW250 25/23 A2993 RMK AO2 SLP133 T02500233
KMCO 161053Z 31007KT 10SM FEW009 SCT250 25/23 A2995 RMK AO2 SLP140 T02500233
KMCO 161153Z 31006KT 10SM FEW008 FEW250 25/24 A2997 RMK AO2 SLP146 T02500239 10256 20250 53017



Page loaded:  12:50 UTC  |   05:50 AM Pacific  |   06:50 AM Mountain  |   07:50 AM Central  |   08:50 AM Eastern

 

ADVISORIES

FORECASTS

FORECASTS

OBSERVATIONS

USER TOOLS

ABOUT US